createdAt,value
2022-10-12T00:00:49.839Z,4.60
2022-10-12T00:03:19.994Z,2.73
2022-10-12T00:05:48.415Z,4.00
2022-10-12T00:08:16.450Z,4.20
2022-10-12T00:10:45.436Z,3.60
2022-10-12T00:13:13.506Z,4.73
2022-10-12T00:15:42.507Z,4.87
2022-10-12T00:18:10.492Z,4.20
2022-10-12T00:20:40.108Z,3.80
2022-10-12T00:23:08.849Z,3.47
2022-10-12T00:25:37.997Z,4.07
2022-10-12T00:28:06.967Z,3.83
2022-10-12T00:30:35.390Z,3.47
2022-10-12T00:33:03.401Z,4.40
2022-10-12T00:35:31.434Z,3.37
2022-10-12T00:38:00.847Z,3.77
2022-10-12T00:40:29.068Z,3.43
2022-10-12T00:42:57.159Z,3.30
2022-10-12T00:45:27.675Z,3.50
2022-10-12T00:48:01.070Z,4.17
2022-10-12T00:50:32.323Z,4.03
2022-10-12T00:53:07.217Z,4.13
2022-10-12T00:55:40.509Z,3.80
2022-10-12T00:58:10.034Z,3.20
2022-10-12T01:00:38.777Z,3.10
2022-10-12T01:03:09.126Z,3.80
2022-10-12T01:05:37.677Z,3.30
2022-10-12T01:08:07.634Z,3.40
2022-10-12T01:10:35.679Z,4.13
2022-10-12T01:13:04.303Z,4.27
2022-10-12T01:15:36.968Z,5.17
2022-10-12T01:18:13.965Z,4.77
2022-10-12T01:21:11.075Z,4.70
2022-10-12T01:24:18.309Z,6.37
2022-10-12T01:27:02.204Z,3.90
2022-10-12T01:29:56.354Z,5.03
2022-10-12T01:32:29.118Z,4.73
2022-10-12T01:35:04.215Z,5.40
2022-10-12T01:37:39.510Z,4.37
2022-10-12T01:40:13.435Z,4.07
2022-10-12T01:42:44.456Z,3.77
2022-10-12T01:45:16.726Z,3.70
2022-10-12T01:47:48.598Z,5.27
2022-10-12T01:50:18.804Z,4.53
2022-10-12T01:52:58.279Z,3.50
2022-10-12T01:55:36.928Z,4.47
2022-10-12T01:58:25.840Z,5.20
2022-10-12T02:01:06.862Z,5.30
2022-10-12T02:03:39.155Z,5.03
2022-10-12T02:06:13.165Z,4.63
2022-10-12T02:08:47.305Z,4.47
2022-10-12T02:11:17.530Z,4.67
2022-10-12T02:13:49.857Z,4.07
2022-10-12T02:16:21.496Z,5.83
2022-10-12T02:18:52.468Z,5.63
2022-10-12T02:21:23.789Z,4.83
2022-10-12T02:23:53.724Z,5.43
2022-10-12T02:26:22.992Z,5.00
2022-10-12T02:28:51.643Z,5.60
2022-10-12T02:31:29.976Z,4.63
2022-10-12T02:34:03.842Z,4.90
2022-10-12T02:36:38.847Z,5.10
2022-10-12T02:39:10.677Z,4.80
2022-10-12T02:41:43.717Z,6.20
2022-10-12T02:44:16.161Z,5.47
2022-10-12T02:46:48.340Z,5.70
2022-10-12T02:49:18.592Z,6.23
2022-10-12T02:51:47.354Z,5.13
2022-10-12T02:54:16.249Z,4.10
2022-10-12T02:56:45.982Z,4.83
2022-10-12T02:59:15.063Z,5.07
2022-10-12T03:01:43.747Z,4.47
2022-10-12T03:04:13.368Z,5.50
2022-10-12T03:06:42.519Z,5.87
2022-10-12T03:09:10.885Z,4.80
2022-10-12T03:11:43.748Z,4.40
2022-10-12T03:14:12.656Z,5.90
2022-10-12T03:16:40.856Z,7.13
2022-10-12T03:19:08.996Z,6.27
2022-10-12T03:21:38.372Z,4.33
2022-10-12T03:24:06.633Z,5.20
2022-10-12T03:26:35.088Z,5.13
2022-10-12T03:29:03.333Z,6.50
2022-10-12T03:31:31.559Z,6.40
2022-10-12T03:33:59.579Z,5.80
2022-10-12T03:36:27.794Z,4.70
2022-10-12T03:38:57.361Z,6.30
2022-10-12T03:41:25.543Z,6.20
2022-10-12T03:43:53.553Z,4.60
2022-10-12T03:46:21.596Z,4.90
2022-10-12T03:48:49.634Z,5.60
2022-10-12T03:51:17.626Z,4.87
2022-10-12T03:53:45.893Z,6.93
2022-10-12T03:56:15.437Z,6.17
2022-10-12T03:58:43.562Z,5.83
2022-10-12T04:01:11.606Z,7.10
2022-10-12T04:03:39.683Z,4.57
2022-10-12T04:06:08.109Z,6.27
2022-10-12T04:08:36.166Z,5.70
2022-10-12T04:11:04.363Z,5.93
2022-10-12T04:13:33.761Z,4.57
2022-10-12T04:16:04.121Z,7.13
2022-10-12T04:18:32.347Z,5.07
2022-10-12T04:21:00.791Z,5.37
2022-10-12T04:23:29.050Z,7.20
2022-10-12T04:25:57.209Z,6.10
2022-10-12T04:28:25.490Z,5.20
2022-10-12T04:30:54.991Z,7.97
2022-10-12T04:33:23.044Z,3.77
2022-10-12T04:35:51.105Z,4.90
2022-10-12T04:38:19.218Z,6.17
2022-10-12T04:40:48.252Z,7.07
2022-10-12T04:43:16.580Z,5.00
2022-10-12T04:45:45.137Z,7.70
2022-10-12T04:48:14.550Z,5.93
2022-10-12T04:50:42.580Z,5.77
2022-10-12T04:53:10.585Z,4.90
2022-10-12T04:55:38.902Z,7.10
2022-10-12T04:58:06.930Z,5.77
2022-10-12T05:00:35.235Z,5.27
2022-10-12T05:03:03.325Z,6.63
2022-10-12T05:05:34.440Z,6.27
2022-10-12T05:08:02.493Z,5.57
2022-10-12T05:10:30.716Z,6.87
2022-10-12T05:12:58.742Z,4.93
2022-10-12T05:15:27.244Z,6.57
2022-10-12T05:17:55.447Z,5.60
2022-10-12T05:20:23.638Z,6.00
2022-10-12T05:22:53.294Z,5.13
2022-10-12T05:25:21.435Z,6.40
2022-10-12T05:27:49.498Z,7.20
2022-10-12T05:30:17.988Z,6.00
2022-10-12T05:32:46.088Z,6.60
2022-10-12T05:35:14.168Z,6.40
2022-10-12T05:37:42.204Z,5.77
2022-10-12T05:40:13.141Z,5.30
2022-10-12T05:42:41.433Z,5.50
2022-10-12T05:45:10.483Z,6.03
2022-10-12T05:47:38.705Z,4.90
2022-10-12T05:50:08.010Z,5.40
2022-10-12T05:52:36.510Z,5.00
2022-10-12T05:55:05.013Z,5.73
2022-10-12T05:57:34.399Z,7.57
2022-10-12T06:00:02.450Z,7.53
2022-10-12T06:02:30.499Z,7.10
2022-10-12T06:04:58.664Z,6.53
2022-10-12T06:07:26.732Z,6.40
2022-10-12T06:09:55.094Z,6.10
2022-10-12T06:12:24.119Z,5.50
2022-10-12T06:14:53.596Z,6.50
2022-10-12T06:17:21.614Z,5.97
2022-10-12T06:19:49.919Z,5.57
2022-10-12T06:22:18.001Z,7.50
2022-10-12T06:24:46.041Z,5.70
2022-10-12T06:27:14.277Z,6.30
2022-10-12T06:29:42.352Z,4.50
2022-10-12T06:32:11.826Z,5.97
2022-10-12T06:34:40.002Z,5.47
2022-10-12T06:37:16.390Z,4.10
2022-10-12T06:39:56.050Z,5.43
2022-10-12T06:42:24.135Z,7.70
2022-10-12T06:44:53.209Z,5.23
2022-10-12T06:47:22.728Z,5.80
2022-10-12T06:49:50.772Z,5.67
2022-10-12T06:52:18.915Z,7.30
2022-10-12T06:54:46.922Z,5.43
2022-10-12T06:57:15.007Z,4.83
2022-10-12T06:59:43.193Z,5.73
2022-10-12T07:02:12.305Z,5.43
2022-10-12T07:04:41.782Z,6.23
2022-10-12T07:07:09.912Z,7.13
2022-10-12T07:09:37.929Z,6.23
2022-10-12T07:12:06.359Z,6.90
2022-10-12T07:14:34.416Z,6.70
2022-10-12T07:17:03.426Z,6.83
2022-10-12T07:19:31.414Z,6.30
2022-10-12T07:22:00.816Z,6.90
2022-10-12T07:24:35.739Z,5.13
2022-10-12T07:27:04.578Z,5.10
2022-10-12T07:29:33.086Z,4.87
2022-10-12T07:32:01.556Z,5.60
2022-10-12T07:34:30.115Z,6.73
2022-10-12T07:37:00.109Z,5.60
2022-10-12T07:39:28.224Z,5.90
2022-10-12T07:41:56.813Z,5.93
2022-10-12T07:44:25.540Z,6.00
2022-10-12T07:46:53.672Z,14.00
2022-10-12T07:49:21.759Z,9.80
2022-10-12T07:51:49.758Z,9.63
2022-10-12T07:54:21.818Z,6.23
2022-10-12T07:56:52.523Z,4.83
2022-10-12T07:59:20.523Z,5.73
2022-10-12T08:01:48.529Z,6.03
2022-10-12T08:04:16.620Z,6.03
2022-10-12T08:06:44.808Z,6.57
2022-10-12T08:09:12.836Z,6.40
2022-10-12T08:11:42.661Z,5.97
2022-10-12T08:14:15.652Z,5.60
2022-10-12T08:16:44.351Z,5.63
2022-10-12T08:19:12.662Z,5.40
2022-10-12T08:21:41.922Z,6.87
2022-10-12T08:24:10.232Z,7.20
2022-10-12T08:26:38.377Z,6.63
2022-10-12T08:29:09.215Z,5.57
2022-10-12T08:31:37.959Z,6.67
2022-10-12T08:34:06.149Z,5.50
2022-10-12T08:36:34.294Z,6.70
2022-10-12T08:39:02.524Z,5.30
2022-10-12T08:41:40.367Z,5.33
2022-10-12T08:44:23.232Z,5.60
2022-10-12T08:46:55.850Z,4.83
2022-10-12T08:49:27.254Z,5.80
2022-10-12T08:51:58.551Z,6.70
2022-10-12T08:54:30.409Z,10.97
2022-10-12T08:56:58.858Z,8.00
2022-10-12T08:59:30.925Z,5.97
2022-10-12T09:02:08.689Z,5.10
2022-10-12T09:04:52.649Z,4.90
2022-10-12T09:07:26.066Z,4.43
2022-10-12T09:10:04.259Z,5.10
2022-10-12T09:12:43.325Z,6.20
2022-10-12T09:15:17.661Z,4.27
2022-10-12T09:17:50.060Z,6.13
2022-10-12T09:20:21.062Z,5.40
2022-10-12T09:22:51.344Z,5.87
2022-10-12T09:25:23.204Z,5.77
2022-10-12T09:27:51.255Z,4.27
2022-10-12T09:30:21.966Z,4.73
2022-10-12T09:33:14.095Z,4.13
2022-10-12T09:35:54.033Z,4.03
2022-10-12T09:38:24.866Z,4.20
2022-10-12T09:40:53.804Z,3.90
2022-10-12T09:43:21.868Z,4.73
2022-10-12T09:45:51.760Z,2.90
2022-10-12T09:48:22.023Z,4.00
2022-10-12T09:50:53.105Z,3.70
2022-10-12T09:53:28.779Z,3.10
2022-10-12T09:56:03.252Z,3.10
2022-10-12T09:58:32.747Z,2.80
2022-10-12T10:01:23.948Z,3.47
2022-10-12T10:04:09.309Z,3.07
2022-10-12T10:06:38.007Z,3.70
2022-10-12T10:09:06.947Z,3.20
2022-10-12T10:11:35.562Z,4.13
2022-10-12T10:14:03.781Z,3.67
2022-10-12T10:16:33.251Z,4.03
2022-10-12T10:19:03.069Z,3.40
2022-10-12T10:21:35.401Z,3.10
2022-10-12T10:24:05.163Z,2.97
2022-10-12T10:26:52.513Z,3.37
2022-10-12T10:29:33.906Z,3.97
2022-10-12T10:32:23.952Z,3.23
2022-10-12T10:35:04.065Z,3.60
2022-10-12T10:37:32.867Z,4.50
2022-10-12T10:40:01.726Z,3.17
2022-10-12T10:42:32.739Z,6.30
2022-10-12T10:45:03.613Z,3.23
2022-10-12T10:47:34.786Z,3.33
2022-10-12T10:50:04.716Z,4.17
2022-10-12T10:52:35.348Z,3.20
2022-10-12T10:55:21.889Z,4.20
2022-10-12T10:57:58.536Z,2.23
2022-10-12T11:00:38.556Z,3.30
2022-10-12T11:03:14.870Z,3.00
2022-10-12T11:05:49.401Z,2.60
2022-10-12T11:08:21.902Z,3.03
2022-10-12T11:10:54.498Z,2.47
2022-10-12T11:13:26.829Z,3.03
2022-10-12T11:16:00.948Z,2.60
2022-10-12T11:18:37.971Z,2.50
2022-10-12T11:21:12.491Z,3.03
2022-10-12T11:23:46.956Z,2.30
2022-10-12T11:26:24.208Z,2.43
2022-10-12T11:28:54.230Z,2.30
2022-10-12T11:31:26.197Z,2.90
2022-10-12T11:33:57.658Z,2.93
2022-10-12T11:36:28.692Z,3.03
2022-10-12T11:39:03.210Z,3.20
2022-10-12T11:42:03.287Z,2.90
2022-10-12T11:44:41.166Z,2.80
2022-10-12T11:47:14.984Z,3.37
2022-10-12T11:49:54.650Z,2.30
2022-10-12T11:52:28.552Z,2.53
2022-10-12T11:55:05.202Z,2.33
2022-10-12T11:57:38.039Z,2.40
2022-10-12T12:00:18.221Z,2.30
2022-10-12T12:02:51.161Z,2.43
2022-10-12T12:05:20.773Z,2.20
2022-10-12T12:07:50.639Z,1.93
2022-10-12T12:10:54.710Z,2.50
2022-10-12T12:13:27.127Z,2.60
2022-10-12T12:16:32.825Z,2.20
2022-10-12T12:19:42.683Z,1.70
2022-10-12T12:22:18.178Z,2.53
2022-10-12T12:24:59.369Z,3.40
2022-10-12T12:27:33.907Z,2.87
2022-10-12T12:30:03.696Z,2.30
2022-10-12T12:32:51.935Z,3.17
2022-10-12T12:35:41.212Z,1.60
2022-10-12T12:38:32.429Z,2.37
2022-10-12T12:44:06.311Z,2.57
2022-10-12T12:47:43.997Z,2.03
2022-10-12T12:50:32.000Z,2.00
2022-10-12T12:53:06.775Z,2.70
2022-10-12T12:55:48.018Z,2.40
2022-10-12T12:58:38.810Z,2.60
2022-10-12T13:01:28.402Z,2.53
2022-10-12T13:04:30.865Z,2.80
2022-10-12T13:07:31.729Z,3.20
2022-10-12T13:10:12.111Z,2.50
2022-10-12T13:13:28.107Z,2.93
2022-10-12T13:16:05.486Z,2.10
2022-10-12T13:22:52.641Z,2.03
2022-10-12T13:25:29.479Z,2.47
2022-10-12T13:28:00.652Z,2.17
2022-10-12T13:30:34.374Z,2.43
2022-10-12T13:33:09.266Z,2.70
2022-10-12T13:35:42.434Z,2.13
2022-10-12T13:39:10.707Z,2.70
2022-10-12T13:45:49.350Z,2.43
2022-10-12T13:48:34.092Z,3.30
2022-10-12T13:51:44.944Z,2.60
2022-10-12T14:05:28.401Z,2.87
2022-10-12T14:08:00.598Z,2.30
2022-10-12T14:10:32.886Z,2.90
2022-10-12T14:13:02.620Z,2.33
2022-10-12T14:15:34.929Z,2.83
2022-10-12T14:18:03.251Z,2.80
2022-10-12T14:20:37.275Z,3.13
2022-10-12T14:23:12.009Z,2.40
2022-10-12T14:25:51.136Z,2.70
2022-10-12T14:28:29.401Z,2.27
2022-10-12T14:30:58.771Z,3.30
2022-10-12T14:33:28.740Z,2.97
2022-10-12T14:36:16.728Z,3.10
2022-10-12T14:38:47.360Z,2.27
2022-10-12T14:41:36.857Z,2.97
2022-10-12T14:44:10.589Z,2.00
2022-10-12T14:46:41.670Z,2.37
2022-10-12T14:49:17.378Z,2.60
2022-10-12T14:51:47.444Z,3.07
2022-10-12T14:54:15.512Z,2.73
2022-10-12T14:56:43.567Z,2.40
2022-10-12T14:59:11.638Z,2.50
2022-10-12T15:01:42.016Z,2.67
2022-10-12T15:04:13.371Z,2.37
2022-10-12T15:06:41.500Z,3.13
2022-10-12T15:09:10.828Z,4.40
2022-10-12T15:11:38.770Z,3.83
2022-10-12T15:14:07.386Z,3.20
2022-10-12T15:16:35.369Z,2.50
2022-10-12T15:19:03.404Z,4.17
2022-10-12T15:21:31.434Z,2.63
2022-10-12T15:23:59.653Z,1.87
2022-10-12T15:26:29.460Z,2.40
2022-10-12T15:28:57.698Z,2.57
2022-10-12T15:31:25.777Z,2.77
2022-10-12T15:33:53.744Z,9.63
2022-10-12T15:36:21.759Z,7.27
2022-10-12T15:38:49.789Z,4.30
2022-10-12T15:41:19.562Z,7.90
2022-10-12T15:43:49.217Z,3.57
2022-10-12T15:46:17.396Z,2.13
2022-10-12T15:48:45.400Z,2.53
2022-10-12T15:51:18.483Z,2.63
2022-10-12T15:53:46.689Z,2.87
2022-10-12T15:56:15.880Z,2.13
2022-10-12T15:58:44.203Z,2.10
2022-10-12T16:01:14.580Z,4.03
2022-10-12T16:03:44.010Z,2.60
2022-10-12T16:06:12.286Z,3.43
2022-10-12T16:08:42.396Z,2.50
2022-10-12T16:11:20.307Z,2.23
2022-10-12T16:13:55.441Z,3.43
2022-10-12T16:16:25.280Z,2.40
2022-10-12T16:18:54.339Z,3.20
2022-10-12T16:21:22.634Z,7.37
2022-10-12T16:23:50.610Z,4.23
2022-10-12T16:26:19.219Z,2.47
2022-10-12T16:28:47.338Z,3.50
2022-10-12T16:31:17.865Z,3.50
2022-10-12T16:33:47.436Z,2.23
2022-10-12T16:36:17.044Z,2.60
2022-10-12T16:38:45.899Z,2.63
2022-10-12T16:41:16.127Z,2.30
2022-10-12T16:43:45.007Z,2.30
2022-10-12T16:46:13.140Z,4.47
2022-10-12T16:48:41.189Z,3.30
2022-10-12T16:51:11.755Z,4.33
2022-10-12T16:53:42.355Z,3.20
2022-10-12T16:56:10.901Z,3.67
2022-10-12T16:58:39.167Z,3.30
2022-10-12T17:01:11.364Z,3.77
2022-10-12T17:03:39.797Z,2.60
2022-10-12T17:06:08.569Z,3.70
2022-10-12T17:08:39.304Z,2.20
2022-10-12T17:11:09.036Z,3.83
2022-10-12T17:13:38.484Z,3.27
2022-10-12T17:16:28.606Z,3.07
2022-10-12T17:18:59.386Z,2.90
2022-10-12T17:21:28.105Z,3.10
2022-10-12T17:23:58.887Z,3.50
2022-10-12T17:26:27.239Z,4.13
2022-10-12T17:28:55.875Z,2.30
2022-10-12T17:31:24.179Z,3.70
2022-10-12T17:33:52.285Z,3.70
2022-10-12T17:36:22.349Z,3.20
2022-10-12T17:38:55.167Z,2.73
2022-10-12T17:41:24.666Z,2.70
2022-10-12T17:43:52.987Z,2.00
2022-10-12T17:46:22.794Z,2.90
2022-10-12T17:48:51.342Z,5.00
2022-10-12T17:51:19.389Z,3.70
2022-10-12T17:53:47.391Z,3.40
2022-10-12T17:56:16.596Z,1.90
2022-10-12T17:58:45.985Z,3.03
2022-10-12T18:01:16.446Z,2.50
2022-10-12T18:03:47.079Z,2.47
2022-10-12T18:06:17.879Z,2.07
2022-10-12T18:08:46.095Z,2.10
2022-10-12T18:11:14.231Z,2.90
2022-10-12T18:13:46.098Z,3.43
2022-10-12T18:16:17.040Z,2.20
2022-10-12T18:18:45.128Z,2.90
2022-10-12T18:21:14.619Z,4.07
2022-10-12T18:23:42.668Z,3.40
2022-10-12T18:26:12.974Z,2.70
2022-10-12T18:28:41.263Z,3.03
2022-10-12T18:31:09.601Z,2.43
2022-10-12T18:33:38.994Z,2.53
2022-10-12T18:36:08.298Z,2.40
2022-10-12T18:38:36.407Z,2.63
2022-10-12T18:41:04.971Z,2.40
2022-10-12T18:43:33.516Z,2.70
2022-10-12T18:46:05.153Z,2.50
2022-10-12T18:48:33.304Z,2.60
2022-10-12T18:51:06.951Z,2.40
2022-10-12T18:53:35.435Z,2.63
2022-10-12T18:56:04.946Z,2.80
2022-10-12T18:58:33.276Z,3.03
2022-10-12T19:01:01.460Z,3.10
2022-10-12T19:03:29.682Z,2.60
2022-10-12T19:06:06.397Z,4.00
2022-10-12T19:08:34.542Z,3.90
2022-10-12T19:11:04.593Z,3.13
2022-10-12T19:13:32.634Z,3.50
2022-10-12T19:16:05.587Z,3.20
2022-10-12T19:18:33.658Z,3.57
2022-10-12T19:21:07.257Z,3.07
2022-10-12T19:23:35.294Z,3.07
2022-10-12T19:26:05.318Z,2.30
2022-10-12T19:28:34.364Z,2.90
2022-10-12T19:31:03.297Z,2.93
2022-10-12T19:33:31.615Z,2.80
2022-10-12T19:35:59.768Z,3.07
2022-10-12T19:38:29.273Z,3.07
2022-10-12T19:40:57.418Z,2.87
2022-10-12T19:43:25.657Z,3.40
2022-10-12T19:45:53.776Z,2.43
2022-10-12T19:48:22.077Z,10.47
2022-10-12T19:50:59.893Z,6.60
2022-10-12T19:53:30.239Z,3.10
2022-10-12T19:56:02.507Z,2.60
2022-10-12T19:58:30.549Z,3.23
2022-10-12T20:01:02.297Z,2.47
2022-10-12T20:03:30.732Z,2.90
2022-10-12T20:05:58.952Z,2.20
2022-10-12T20:08:27.143Z,2.57
2022-10-12T20:10:56.541Z,3.97
2022-10-12T20:13:24.607Z,2.53
2022-10-12T20:15:53.969Z,2.57
2022-10-12T20:18:22.140Z,3.03
2022-10-12T20:20:50.679Z,2.50
2022-10-12T20:23:18.982Z,2.70
2022-10-12T20:25:48.889Z,3.17
2022-10-12T20:28:19.483Z,4.10
2022-10-12T20:30:48.601Z,2.57
2022-10-12T20:33:17.232Z,3.40
2022-10-12T20:35:49.572Z,2.80
2022-10-12T20:38:18.367Z,2.60
2022-10-12T20:40:46.981Z,3.50
2022-10-12T20:43:15.325Z,3.30
2022-10-12T20:45:44.819Z,3.43
2022-10-12T20:48:12.906Z,2.40
2022-10-12T20:50:41.552Z,2.53
2022-10-12T20:53:09.554Z,3.20
2022-10-12T20:55:40.273Z,3.77
2022-10-12T20:58:08.343Z,2.30
2022-10-12T21:00:36.634Z,2.50
2022-10-12T21:03:08.571Z,2.60
2022-10-12T21:05:38.497Z,3.23
2022-10-12T21:08:06.659Z,4.27
2022-10-12T21:10:37.954Z,8.10
2022-10-12T21:13:10.376Z,4.33
2022-10-12T21:15:38.401Z,3.27
2022-10-12T21:18:07.801Z,3.27
2022-10-12T21:20:35.833Z,2.67
2022-10-12T21:23:03.924Z,3.17
2022-10-12T21:25:31.968Z,2.43
2022-10-12T21:27:59.984Z,2.67
2022-10-12T21:30:28.126Z,3.60
2022-10-12T21:32:56.128Z,2.80
2022-10-12T21:35:25.525Z,2.80
2022-10-12T21:37:53.547Z,2.37
2022-10-12T21:40:21.983Z,2.40
2022-10-12T21:42:49.967Z,3.10
2022-10-12T21:45:18.429Z,2.50
2022-10-12T21:47:47.981Z,3.67
2022-10-12T21:50:16.184Z,3.20
2022-10-12T21:52:49.568Z,2.27
2022-10-12T21:55:17.982Z,2.47
2022-10-12T21:57:46.370Z,2.63
2022-10-12T22:00:15.340Z,2.50
2022-10-12T22:02:43.362Z,2.37
2022-10-12T22:05:11.351Z,2.60
2022-10-12T22:07:42.541Z,2.10
2022-10-12T22:10:12.994Z,2.40
2022-10-12T22:12:41.005Z,3.30
2022-10-12T22:15:10.057Z,2.80
2022-10-12T22:17:38.038Z,2.40
2022-10-12T22:20:06.775Z,2.10
2022-10-12T22:22:34.939Z,2.60
2022-10-12T22:25:02.989Z,2.63
2022-10-12T22:27:32.419Z,3.93
2022-10-12T22:30:00.639Z,2.03
2022-10-12T22:32:28.821Z,2.47
2022-10-12T22:34:57.316Z,2.20
2022-10-12T22:37:25.373Z,3.23
2022-10-12T22:39:53.533Z,2.70
2022-10-12T22:42:21.805Z,1.73
2022-10-12T22:44:51.353Z,2.33
2022-10-12T22:47:19.501Z,1.87
2022-10-12T22:49:47.877Z,3.37
2022-10-12T22:52:16.198Z,2.70
2022-10-12T22:54:44.651Z,3.20
2022-10-12T22:57:12.793Z,3.37
2022-10-12T22:59:40.851Z,3.10
2022-10-12T23:02:10.346Z,2.60
2022-10-12T23:04:38.471Z,2.10
2022-10-12T23:07:06.598Z,2.53
2022-10-12T23:09:34.737Z,2.13
2022-10-12T23:12:02.825Z,2.37
2022-10-12T23:14:31.054Z,2.80
2022-10-12T23:16:59.150Z,2.87
2022-10-12T23:19:28.817Z,4.03
2022-10-12T23:21:56.811Z,2.27
2022-10-12T23:24:24.866Z,3.33
2022-10-12T23:26:53.047Z,2.73
2022-10-12T23:29:21.075Z,1.97
2022-10-12T23:31:49.086Z,3.00
2022-10-12T23:34:17.128Z,2.40
2022-10-12T23:36:46.546Z,2.27
2022-10-12T23:39:14.579Z,1.77
2022-10-12T23:41:42.670Z,2.33
2022-10-12T23:44:10.681Z,2.30
2022-10-12T23:46:38.736Z,4.20
2022-10-12T23:49:06.810Z,3.47
2022-10-12T23:51:34.837Z,3.00
2022-10-12T23:54:04.295Z,3.37
2022-10-12T23:56:32.345Z,2.40
2022-10-12T23:59:00.649Z,2.40
